createdAt,value
2023-03-28T00:01:10.791Z,-2.10
2023-03-28T00:03:42.394Z,-2.10
2023-03-28T00:06:18.382Z,-2.10
2023-03-28T00:08:47.638Z,-2.20
2023-03-28T00:11:20.867Z,-2.20
2023-03-28T00:14:03.456Z,-2.20
2023-03-28T00:16:33.982Z,-2.20
2023-03-28T00:19:16.131Z,-2.20
2023-03-28T00:21:47.009Z,-2.20
2023-03-28T00:24:16.987Z,-2.10
2023-03-28T00:26:45.340Z,-2.00
2023-03-28T00:29:15.880Z,-1.90
2023-03-28T00:31:42.985Z,-1.80
2023-03-28T00:34:12.881Z,-1.70
2023-03-28T00:36:41.665Z,-1.70
2023-03-28T00:39:10.440Z,-1.60
2023-03-28T00:41:43.833Z,-1.60
2023-03-28T00:44:56.444Z,-1.50
2023-03-28T00:47:49.574Z,-1.50
2023-03-28T00:50:21.626Z,-1.40
2023-03-28T00:52:57.579Z,-1.40
2023-03-28T00:55:33.935Z,-1.30
2023-03-28T00:58:09.946Z,-1.30
2023-03-28T01:00:38.992Z,-1.10
2023-03-28T01:03:06.826Z,-1.10
2023-03-28T01:05:36.016Z,-1.00
2023-03-28T01:08:24.977Z,-1.00
2023-03-28T01:10:54.359Z,-1.00
2023-03-28T01:13:32.695Z,-0.90
2023-03-28T01:16:02.999Z,-0.90
2023-03-28T01:18:34.938Z,-0.90
2023-03-28T01:21:11.788Z,-0.80
2023-03-28T01:24:11.157Z,-0.80
2023-03-28T01:26:47.260Z,-0.80
2023-03-28T01:30:01.592Z,-0.70
2023-03-28T01:32:47.497Z,-0.70
2023-03-28T01:35:42.277Z,-0.60
2023-03-28T01:38:16.853Z,-0.60
2023-03-28T01:41:05.480Z,-0.60
2023-03-28T01:43:56.258Z,-0.60
2023-03-28T01:46:55.601Z,-0.60
2023-03-28T01:49:52.058Z,-0.60
2023-03-28T01:52:46.686Z,-0.50
2023-03-28T01:55:30.323Z,-0.50
2023-03-28T01:58:05.575Z,-0.50
2023-03-28T02:00:47.985Z,-0.60
2023-03-28T02:03:29.224Z,-0.60
2023-03-28T02:06:02.753Z,-0.60
2023-03-28T02:08:34.906Z,-0.60
2023-03-28T02:11:18.106Z,-0.60
2023-03-28T02:14:16.842Z,-0.60
2023-03-28T02:17:00.529Z,-0.60
2023-03-28T02:20:08.990Z,-0.50
2023-03-28T02:23:17.811Z,-0.50
2023-03-28T02:26:08.951Z,-0.50
2023-03-28T02:28:43.099Z,-0.50
2023-03-28T02:31:16.444Z,-0.50
2023-03-28T02:33:48.693Z,-0.60
2023-03-28T02:36:25.797Z,-0.60
2023-03-28T02:39:14.755Z,-0.60
2023-03-28T02:42:11.185Z,-0.70
2023-03-28T02:45:06.270Z,-0.80
2023-03-28T02:47:37.252Z,-0.70
2023-03-28T02:50:27.385Z,-0.70
2023-03-28T02:53:22.235Z,-0.70
2023-03-28T02:55:58.396Z,-0.70
2023-03-28T02:58:55.377Z,-0.70
2023-03-28T03:01:29.352Z,-0.70
2023-03-28T03:03:58.353Z,-0.70
2023-03-28T03:06:26.078Z,-0.70
2023-03-28T03:08:53.166Z,-0.70
2023-03-28T03:11:21.433Z,-0.70
2023-03-28T03:13:48.539Z,-0.70
2023-03-28T03:16:18.478Z,-0.70
2023-03-28T03:18:47.629Z,-0.60
2023-03-28T03:21:16.797Z,-0.50
2023-03-28T03:23:44.006Z,-0.50
2023-03-28T03:26:11.996Z,-0.50
2023-03-28T03:28:46.173Z,-0.40
2023-03-28T03:31:13.652Z,-0.40
2023-03-28T03:34:02.089Z,-0.40
2023-03-28T03:36:36.196Z,-0.40
2023-03-28T03:39:06.614Z,-0.40
2023-03-28T03:41:34.008Z,-0.40
2023-03-28T03:44:01.051Z,-0.40
2023-03-28T03:46:30.792Z,-0.30
2023-03-28T03:48:57.979Z,-0.30
2023-03-28T03:51:25.505Z,-0.30
2023-03-28T03:53:57.202Z,-0.30
2023-03-28T03:56:32.462Z,-0.30
2023-03-28T03:59:01.008Z,-0.20
2023-03-28T04:01:31.420Z,-0.20
2023-03-28T04:04:30.460Z,-0.20
2023-03-28T04:07:22.606Z,-0.10
2023-03-28T04:09:52.527Z,-0.20
2023-03-28T04:12:20.240Z,-0.10
2023-03-28T04:14:52.427Z,-0.10
2023-03-28T04:17:37.845Z,-0.10
2023-03-28T04:20:12.940Z,0.00
2023-03-28T04:23:08.554Z,0.00
2023-03-28T04:25:41.561Z,0.00
2023-03-28T04:28:16.225Z,0.00
2023-03-28T04:31:07.418Z,0.00
2023-03-28T04:33:53.894Z,0.00
2023-03-28T04:36:25.707Z,0.10
2023-03-28T04:39:04.242Z,0.10
2023-03-28T04:41:49.965Z,0.10
2023-03-28T04:44:26.564Z,0.10
2023-03-28T04:46:59.741Z,0.20
2023-03-28T04:49:27.127Z,0.20
2023-03-28T04:51:55.036Z,0.20
2023-03-28T04:54:22.712Z,0.30
2023-03-28T04:57:15.705Z,0.30
2023-03-28T04:59:45.721Z,0.30
2023-03-28T05:02:30.738Z,0.30
2023-03-28T05:05:02.636Z,0.40
2023-03-28T05:07:29.762Z,0.40
2023-03-28T05:09:58.361Z,0.50
2023-03-28T05:12:32.167Z,0.50
2023-03-28T05:15:07.764Z,0.50
2023-03-28T05:17:47.005Z,0.50
2023-03-28T05:20:28.543Z,0.60
2023-03-28T05:22:57.434Z,0.60
2023-03-28T05:25:26.091Z,0.60
2023-03-28T05:27:54.962Z,0.60
2023-03-28T05:30:22.654Z,0.70
2023-03-28T05:32:53.394Z,0.70
2023-03-28T05:35:21.059Z,0.70
2023-03-28T05:37:50.214Z,0.80
2023-03-28T05:40:18.336Z,0.90
2023-03-28T05:42:45.782Z,0.90
2023-03-28T05:45:19.088Z,1.00
2023-03-28T05:48:09.570Z,1.00
2023-03-28T05:50:37.657Z,1.00
2023-03-28T05:53:06.519Z,1.00
2023-03-28T05:55:35.699Z,1.10
2023-03-28T05:58:04.359Z,1.20
2023-03-28T06:00:40.311Z,1.20
2023-03-28T06:03:16.746Z,1.20
2023-03-28T06:05:46.001Z,1.20
2023-03-28T06:08:27.345Z,1.30
2023-03-28T06:10:59.706Z,1.20
2023-03-28T06:13:30.688Z,1.20
2023-03-28T06:15:58.423Z,1.20
2023-03-28T06:18:33.920Z,1.20
2023-03-28T06:21:01.699Z,1.30
2023-03-28T06:23:31.242Z,1.30
2023-03-28T06:25:58.807Z,1.20
2023-03-28T06:28:32.425Z,1.10
2023-03-28T06:31:20.122Z,1.00
2023-03-28T06:33:48.118Z,1.00
2023-03-28T06:36:19.344Z,1.10
2023-03-28T06:38:47.572Z,1.10
2023-03-28T06:41:14.929Z,1.40
2023-03-28T06:43:42.171Z,1.40
2023-03-28T06:46:29.640Z,1.30
2023-03-28T06:48:59.507Z,1.40
2023-03-28T06:51:27.316Z,1.50
2023-03-28T06:53:55.551Z,1.40
2023-03-28T06:56:27.224Z,1.30
2023-03-28T06:58:56.373Z,1.20
2023-03-28T07:01:26.657Z,1.10
2023-03-28T07:04:06.524Z,0.90
2023-03-28T07:06:36.128Z,0.90
2023-03-28T07:09:06.641Z,0.90
2023-03-28T07:12:00.420Z,1.00
2023-03-28T07:14:27.707Z,1.10
2023-03-28T07:16:55.694Z,1.20
2023-03-28T07:19:26.201Z,1.20
2023-03-28T07:21:54.269Z,1.20
2023-03-28T07:24:22.441Z,1.10
2023-03-28T07:27:14.821Z,0.90
2023-03-28T07:29:43.109Z,0.90
2023-03-28T07:32:11.225Z,1.00
2023-03-28T07:34:38.271Z,1.00
2023-03-28T07:37:08.909Z,1.20
2023-03-28T07:39:50.091Z,1.30
2023-03-28T07:42:21.828Z,1.40
2023-03-28T07:44:49.306Z,1.40
2023-03-28T07:47:18.278Z,1.70
2023-03-28T07:49:46.010Z,1.80
2023-03-28T07:52:15.452Z,2.00
2023-03-28T07:54:42.780Z,2.00
2023-03-28T07:57:10.169Z,2.20
2023-03-28T07:59:58.236Z,2.40
2023-03-28T08:02:26.977Z,2.70
2023-03-28T08:04:54.184Z,2.80
2023-03-28T08:07:25.748Z,3.10
2023-03-28T08:09:54.768Z,3.20
2023-03-28T08:12:28.956Z,3.00
2023-03-28T08:14:59.776Z,3.20
2023-03-28T08:17:31.682Z,3.40
2023-03-28T08:19:58.864Z,3.50
2023-03-28T08:22:32.150Z,3.50
2023-03-28T08:25:19.535Z,3.90
2023-03-28T08:27:47.664Z,4.00
2023-03-28T08:30:15.641Z,4.20
2023-03-28T08:32:58.614Z,4.20
2023-03-28T08:35:26.237Z,4.10
2023-03-28T08:37:57.808Z,3.80
2023-03-28T08:40:28.628Z,3.60
2023-03-28T08:44:02.195Z,3.70
2023-03-28T08:46:30.574Z,3.50
2023-03-28T08:49:03.443Z,3.70
2023-03-28T08:51:40.917Z,3.90
2023-03-28T08:54:32.454Z,3.70
2023-03-28T08:57:03.034Z,3.70
2023-03-28T08:59:52.093Z,3.70
2023-03-28T09:02:27.695Z,3.60
2023-03-28T09:05:08.192Z,3.20
2023-03-28T09:07:59.878Z,2.90
2023-03-28T09:10:44.727Z,2.60
2023-03-28T09:13:58.035Z,2.70
2023-03-28T09:16:53.867Z,2.70
2023-03-28T09:19:36.905Z,2.70
2023-03-28T09:22:49.446Z,2.80
2023-03-28T09:25:49.068Z,2.90
2023-03-28T09:28:17.855Z,2.80
2023-03-28T09:30:48.903Z,2.60
2023-03-28T09:33:38.583Z,2.70
2023-03-28T09:36:20.799Z,3.10
2023-03-28T09:38:58.192Z,3.50
2023-03-28T09:41:36.868Z,3.60
2023-03-28T09:44:30.251Z,3.40
2023-03-28T09:47:28.937Z,3.50
2023-03-28T09:50:11.801Z,3.60
2023-03-28T09:52:43.055Z,3.50
2023-03-28T09:55:20.872Z,3.60
2023-03-28T09:58:10.191Z,3.60
2023-03-28T10:01:03.807Z,3.40
2023-03-28T10:03:56.159Z,3.20
2023-03-28T10:06:45.446Z,3.40
2023-03-28T10:09:13.565Z,3.40
2023-03-28T10:11:54.752Z,3.20
2023-03-28T10:14:31.766Z,3.00
2023-03-28T10:17:30.097Z,2.80
2023-03-28T10:20:21.825Z,2.70
2023-03-28T10:22:56.789Z,2.60
2023-03-28T10:25:38.738Z,2.40
2023-03-28T10:28:09.395Z,2.20
2023-03-28T10:30:37.583Z,2.10
2023-03-28T10:33:14.633Z,2.30
2023-03-28T10:35:59.697Z,2.40
2023-03-28T10:38:44.610Z,2.40
2023-03-28T10:41:59.498Z,2.60
2023-03-28T10:45:00.234Z,3.30
2023-03-28T10:47:30.692Z,3.60
2023-03-28T10:50:03.398Z,3.50
2023-03-28T10:52:38.436Z,3.40
2023-03-28T10:55:23.408Z,3.00
2023-03-28T10:58:26.371Z,3.10
2023-03-28T11:01:07.780Z,2.80
2023-03-28T11:04:24.326Z,2.80
2023-03-28T11:07:18.027Z,2.80
2023-03-28T11:10:25.252Z,2.80
2023-03-28T11:13:08.948Z,3.20
2023-03-28T11:15:48.461Z,3.50
2023-03-28T11:18:46.722Z,3.60
2023-03-28T11:21:34.682Z,3.90
2023-03-28T11:24:12.679Z,4.00
2023-03-28T11:27:16.366Z,3.80
2023-03-28T11:30:26.339Z,3.20
2023-03-28T11:33:31.985Z,2.80
2023-03-28T11:36:07.407Z,2.40
2023-03-28T11:38:41.447Z,2.50
2023-03-28T11:41:17.360Z,2.80
2023-03-28T11:44:18.364Z,3.00
2023-03-28T11:46:53.208Z,3.40
2023-03-28T11:49:45.745Z,3.70
2023-03-28T11:52:38.949Z,3.90
2023-03-28T11:55:17.057Z,3.30
2023-03-28T11:58:02.364Z,3.40
2023-03-28T12:00:41.685Z,3.60
2023-03-28T12:03:29.314Z,3.80
2023-03-28T12:06:19.908Z,3.50
2023-03-28T12:09:00.952Z,3.40
2023-03-28T12:11:45.804Z,3.20
2023-03-28T12:14:32.057Z,3.00
2023-03-28T12:17:28.775Z,3.10
2023-03-28T12:19:56.479Z,3.30
2023-03-28T12:22:34.241Z,3.40
2023-03-28T12:25:18.321Z,3.50
2023-03-28T12:27:52.166Z,3.50
2023-03-28T12:30:50.872Z,3.40
2023-03-28T12:33:24.039Z,3.30
2023-03-28T12:36:20.651Z,3.00
2023-03-28T12:38:55.647Z,2.50
2023-03-28T12:41:38.904Z,2.30
2023-03-28T12:44:10.922Z,2.50
2023-03-28T12:46:50.095Z,2.70
2023-03-28T12:49:34.780Z,3.00
2023-03-28T12:52:07.623Z,2.80
2023-03-28T12:54:58.319Z,2.80
2023-03-28T12:57:45.561Z,2.90
2023-03-28T13:00:56.995Z,2.70
2023-03-28T13:03:39.899Z,2.60
2023-03-28T13:06:07.397Z,2.60
2023-03-28T13:08:45.581Z,2.90
2023-03-28T13:11:17.281Z,3.00
2023-03-28T13:14:01.688Z,2.70
2023-03-28T13:16:43.776Z,2.30
2023-03-28T13:19:12.402Z,2.30
2023-03-28T13:21:42.661Z,2.50
2023-03-28T13:24:25.569Z,2.60
2023-03-28T13:27:00.745Z,2.90
2023-03-28T13:29:43.449Z,3.20
2023-03-28T13:32:15.569Z,3.50
2023-03-28T13:35:09.004Z,3.70
2023-03-28T13:37:42.075Z,3.80
2023-03-28T13:40:28.056Z,4.00
2023-03-28T13:42:58.917Z,3.80
2023-03-28T13:45:26.390Z,3.80
2023-03-28T13:48:06.205Z,3.70
2023-03-28T13:50:39.775Z,3.60
2023-03-28T13:53:06.727Z,3.40
2023-03-28T13:55:34.329Z,2.70
2023-03-28T13:58:01.665Z,2.40
2023-03-28T14:00:31.037Z,2.00
2023-03-28T14:03:05.122Z,1.90
2023-03-28T14:05:33.788Z,2.10
2023-03-28T14:08:16.577Z,2.20
2023-03-28T14:10:45.338Z,2.20
2023-03-28T14:13:16.814Z,2.20
2023-03-28T14:15:44.514Z,1.90
2023-03-28T14:18:32.038Z,1.80
2023-03-28T14:21:01.145Z,1.90
2023-03-28T14:23:28.288Z,2.00
2023-03-28T14:25:57.239Z,2.10
2023-03-28T14:28:27.869Z,2.20
2023-03-28T14:30:55.323Z,2.30
2023-03-28T14:33:22.882Z,2.30
2023-03-28T14:36:03.897Z,2.40
2023-03-28T14:38:36.026Z,2.40
2023-03-28T14:41:13.420Z,2.40
2023-03-28T14:43:40.632Z,2.20
2023-03-28T14:46:09.346Z,1.80
2023-03-28T14:48:37.027Z,1.60
2023-03-28T14:51:05.911Z,1.60
2023-03-28T14:53:40.343Z,1.80
2023-03-28T14:56:10.412Z,1.90
2023-03-28T14:58:39.218Z,1.90
2023-03-28T15:01:07.281Z,1.70
2023-03-28T15:03:41.941Z,1.80
2023-03-28T15:06:15.976Z,1.90
2023-03-28T15:08:43.380Z,1.80
2023-03-28T15:11:18.440Z,1.60
2023-03-28T15:13:46.808Z,1.40
2023-03-28T15:16:17.557Z,1.40
2023-03-28T15:18:48.520Z,1.50
2023-03-28T15:21:16.179Z,1.50
2023-03-28T15:23:43.129Z,1.50
2023-03-28T15:26:16.511Z,1.60
2023-03-28T15:28:43.521Z,1.60
2023-03-28T15:31:11.139Z,1.70
2023-03-28T15:33:38.164Z,2.00
2023-03-28T15:36:18.011Z,1.90
2023-03-28T15:38:48.687Z,2.00
2023-03-28T15:41:23.547Z,2.00
2023-03-28T15:43:58.686Z,2.00
2023-03-28T15:46:30.836Z,1.90
2023-03-28T15:48:59.634Z,1.80
2023-03-28T15:51:30.749Z,1.60
2023-03-28T15:53:59.977Z,1.50
2023-03-28T15:56:32.116Z,1.50
2023-03-28T15:59:01.273Z,1.40
2023-03-28T16:01:29.890Z,1.50
2023-03-28T16:04:16.809Z,1.50
2023-03-28T16:06:44.548Z,1.40
2023-03-28T16:09:19.704Z,1.40
2023-03-28T16:11:47.578Z,1.30
2023-03-28T16:14:53.864Z,1.10
2023-03-28T16:17:43.179Z,0.80
2023-03-28T16:20:19.972Z,0.80
2023-03-28T16:22:51.540Z,0.70
2023-03-28T16:25:18.569Z,0.70
2023-03-28T16:27:48.868Z,0.60
2023-03-28T16:30:20.620Z,0.60
2023-03-28T16:32:51.225Z,0.50
2023-03-28T16:35:18.359Z,0.50
2023-03-28T16:37:45.639Z,0.50
2023-03-28T16:40:12.968Z,0.40
2023-03-28T16:42:40.230Z,0.40
2023-03-28T16:45:11.352Z,0.30
2023-03-28T16:47:38.915Z,0.20
2023-03-28T16:50:08.594Z,0.20
2023-03-28T16:52:40.278Z,0.10
2023-03-28T16:55:11.856Z,0.10
2023-03-28T16:57:39.693Z,0.10
2023-03-28T17:00:07.777Z,0.20
2023-03-28T17:02:38.463Z,0.30
2023-03-28T17:05:05.707Z,0.30
2023-03-28T17:07:32.988Z,0.30
2023-03-28T17:10:00.141Z,0.40
2023-03-28T17:12:29.583Z,0.50
2023-03-28T17:14:56.557Z,0.50
2023-03-28T17:17:23.913Z,0.50
2023-03-28T17:19:51.087Z,0.50
2023-03-28T17:22:18.813Z,0.50
2023-03-28T17:24:46.855Z,0.60
2023-03-28T17:27:16.590Z,0.50
2023-03-28T17:29:43.603Z,0.50
2023-03-28T17:32:11.441Z,0.50
2023-03-28T17:34:38.595Z,0.50
2023-03-28T17:37:05.932Z,0.60
2023-03-28T17:39:32.929Z,0.60
2023-03-28T17:42:00.484Z,0.60
2023-03-28T17:44:28.723Z,0.50
2023-03-28T17:46:58.157Z,0.50
2023-03-28T17:49:25.544Z,0.50
2023-03-28T17:51:53.027Z,0.50
2023-03-28T17:54:20.120Z,0.50
2023-03-28T17:56:47.671Z,0.50
2023-03-28T17:59:15.085Z,0.50
2023-03-28T18:01:42.533Z,0.50
2023-03-28T18:04:09.676Z,0.50
2023-03-28T18:07:02.823Z,0.50
2023-03-28T18:09:43.493Z,0.40
2023-03-28T18:12:11.454Z,0.40
2023-03-28T18:14:41.216Z,0.30
2023-03-28T18:17:09.507Z,0.30
2023-03-28T18:19:36.819Z,0.30
2023-03-28T18:22:04.360Z,0.20
2023-03-28T18:24:31.588Z,0.20
2023-03-28T18:27:00.046Z,0.10
2023-03-28T18:29:27.266Z,0.00
2023-03-28T18:31:54.546Z,0.00
2023-03-28T18:34:22.325Z,-0.10
2023-03-28T18:36:51.368Z,-0.10
2023-03-28T18:39:18.512Z,-0.10
2023-03-28T18:41:46.408Z,-0.20
2023-03-28T18:44:13.463Z,-0.30
2023-03-28T18:46:40.986Z,-0.30
2023-03-28T18:49:08.924Z,-0.30
2023-03-28T18:51:38.214Z,-0.40
2023-03-28T18:54:05.467Z,-0.40
2023-03-28T18:56:33.253Z,-0.50
2023-03-28T18:59:02.289Z,-0.50
2023-03-28T19:01:30.874Z,-0.50
2023-03-28T19:03:58.102Z,-0.50
2023-03-28T19:06:25.439Z,-0.50
2023-03-28T19:08:52.430Z,-0.60
2023-03-28T19:11:20.014Z,-0.60
2023-03-28T19:13:47.223Z,-0.70
2023-03-28T19:16:15.764Z,-0.70
2023-03-28T19:18:44.158Z,-0.70
2023-03-28T19:21:12.006Z,-0.70
2023-03-28T19:23:39.770Z,-0.80
2023-03-28T19:26:08.176Z,-0.80
2023-03-28T19:28:37.647Z,-0.80
2023-03-28T19:31:06.715Z,-0.90
2023-03-28T19:33:33.923Z,-0.90
2023-03-28T19:36:03.914Z,-0.90
2023-03-28T19:38:33.531Z,-0.90
2023-03-28T19:41:01.937Z,-0.90
2023-03-28T19:43:29.570Z,-1.00
2023-03-28T19:46:04.398Z,-1.00
2023-03-28T19:48:32.081Z,-1.00
2023-03-28T19:50:59.436Z,-1.00
2023-03-28T19:53:26.639Z,-1.10
2023-03-28T19:55:54.590Z,-1.10
2023-03-28T19:58:22.052Z,-1.10
2023-03-28T20:00:49.419Z,-1.60
2023-03-28T20:03:16.829Z,-1.10
2023-03-28T20:05:44.918Z,-1.20
2023-03-28T20:08:11.924Z,-1.10
2023-03-28T20:10:42.593Z,-1.20
2023-03-28T20:13:10.004Z,-1.20
2023-03-28T20:15:38.316Z,-1.20
2023-03-28T20:18:05.599Z,-1.30
2023-03-28T20:20:32.814Z,-1.30
2023-03-28T20:23:00.553Z,-1.30
2023-03-28T20:25:27.964Z,-1.30
2023-03-28T20:27:54.894Z,-1.30
2023-03-28T20:30:22.708Z,-1.40
2023-03-28T20:32:49.744Z,-1.40
2023-03-28T20:35:17.286Z,-1.40
2023-03-28T20:37:44.253Z,-1.40
2023-03-28T20:40:11.808Z,-1.40
2023-03-28T20:42:40.889Z,-1.40
2023-03-28T20:45:09.116Z,-1.40
2023-03-28T20:47:37.861Z,-1.40
2023-03-28T20:50:06.292Z,-1.40
2023-03-28T20:52:39.322Z,-1.40
2023-03-28T20:55:07.927Z,-1.30
2023-03-28T20:57:40.745Z,-1.30
2023-03-28T21:00:09.102Z,-1.30
2023-03-28T21:02:36.426Z,-1.40
2023-03-28T21:05:04.679Z,-1.40
2023-03-28T21:07:31.885Z,-1.50
2023-03-28T21:09:59.909Z,-1.50
2023-03-28T21:12:26.917Z,-1.50
2023-03-28T21:14:55.601Z,-1.50
2023-03-28T21:17:26.177Z,-1.50
2023-03-28T21:19:53.480Z,-1.50
2023-03-28T21:22:21.038Z,-1.60
2023-03-28T21:24:48.717Z,-1.60
2023-03-28T21:27:16.633Z,-1.60
2023-03-28T21:29:44.160Z,-1.60
2023-03-28T21:32:11.428Z,-1.60
2023-03-28T21:34:44.842Z,-1.60
2023-03-28T21:37:12.504Z,-1.70
2023-03-28T21:39:39.940Z,-1.70
2023-03-28T21:42:07.360Z,-1.70
2023-03-28T21:44:34.899Z,-1.70
2023-03-28T21:47:01.996Z,-1.70
2023-03-28T21:49:30.585Z,-1.70
2023-03-28T21:51:57.644Z,-1.80
2023-03-28T21:54:25.551Z,-1.70
2023-03-28T21:56:52.561Z,-1.70
2023-03-28T21:59:19.960Z,-1.80
2023-03-28T22:01:46.881Z,-1.80
2023-03-28T22:04:14.327Z,-1.80
2023-03-28T22:06:41.635Z,-1.80
2023-03-28T22:09:09.507Z,-1.80
2023-03-28T22:11:36.556Z,-1.80
2023-03-28T22:14:04.930Z,-1.80
2023-03-28T22:16:33.744Z,-1.80
2023-03-28T22:19:01.657Z,-1.90
2023-03-28T22:21:30.202Z,-1.90
2023-03-28T22:23:58.044Z,-1.90
2023-03-28T22:26:28.252Z,-2.00
2023-03-28T22:29:00.262Z,-2.00
2023-03-28T22:31:27.957Z,-2.00
2023-03-28T22:33:55.681Z,-2.00
2023-03-28T22:36:22.878Z,-2.00
2023-03-28T22:38:50.084Z,-1.90
2023-03-28T22:41:17.018Z,-1.90
2023-03-28T22:43:45.096Z,-1.90
2023-03-28T22:46:17.708Z,-1.90
2023-03-28T22:48:45.074Z,-1.90
2023-03-28T22:51:15.980Z,-1.90
2023-03-28T22:53:43.151Z,-1.90
2023-03-28T22:56:10.087Z,-1.90
2023-03-28T22:58:37.245Z,-1.90
2023-03-28T23:01:04.464Z,-1.90
2023-03-28T23:03:32.470Z,-1.90
2023-03-28T23:06:06.098Z,-1.90
2023-03-28T23:08:34.179Z,-1.90
2023-03-28T23:11:01.469Z,-1.90
2023-03-28T23:13:28.924Z,-1.90
2023-03-28T23:15:55.851Z,-1.90
2023-03-28T23:18:23.432Z,-1.90
2023-03-28T23:20:51.040Z,-1.90
2023-03-28T23:23:21.156Z,-1.90
2023-03-28T23:25:48.060Z,-1.90
2023-03-28T23:28:16.853Z,-2.00
2023-03-28T23:30:45.563Z,-1.90
2023-03-28T23:33:13.635Z,-1.90
2023-03-28T23:35:44.419Z,-2.00
2023-03-28T23:38:16.332Z,-2.00
2023-03-28T23:40:43.962Z,-2.00
2023-03-28T23:43:11.490Z,-2.00
2023-03-28T23:45:38.618Z,-2.10
2023-03-28T23:48:07.265Z,-2.10
2023-03-28T23:50:34.197Z,-2.10
2023-03-28T23:53:01.556Z,-2.10
2023-03-28T23:55:29.875Z,-2.10
2023-03-28T23:57:57.186Z,-2.10
